sensor_id;sensor_type;location;lat;lon;timestamp;temperature;humidity
22319;DHT22;11327;52.334;9.506;2022-10-20T00:00:29;8.00;99.90
22319;DHT22;11327;52.334;9.506;2022-10-20T00:03:50;8.10;99.90
22319;DHT22;11327;52.334;9.506;2022-10-20T00:07:12;8.10;99.90
22319;DHT22;11327;52.334;9.506;2022-10-20T00:10:33;8.10;99.90
22319;DHT22;11327;52.334;9.506;2022-10-20T00:13:55;8.00;99.90
22319;DHT22;11327;52.334;9.506;2022-10-20T00:17:17;8.00;99.90
22319;DHT22;11327;52.334;9.506;2022-10-20T00:20:38;8.00;99.90
22319;DHT22;11327;52.334;9.506;2022-10-20T00:24:01;7.90;99.90
22319;DHT22;11327;52.334;9.506;2022-10-20T00:27:22;7.90;99.90
22319;DHT22;11327;52.334;9.506;2022-10-20T00:30:43;7.90;99.90
22319;DHT22;11327;52.334;9.506;2022-10-20T00:34:04;7.90;99.90
22319;DHT22;11327;52.334;9.506;2022-10-20T00:37:25;7.90;99.90
22319;DHT22;11327;52.334;9.506;2022-10-20T00:40:46;7.80;99.90
22319;DHT22;11327;52.334;9.506;2022-10-20T00:44:45;7.80;99.90
22319;DHT22;11327;52.334;9.506;2022-10-20T00:48:18;7.80;99.90
22319;DHT22;11327;52.334;9.506;2022-10-20T00:51:41;7.70;99.90
22319;DHT22;11327;52.334;9.506;2022-10-20T00:55:02;7.70;99.90
22319;DHT22;11327;52.334;9.506;2022-10-20T00:58:24;7.70;99.90
22319;DHT22;11327;52.334;9.506;2022-10-20T01:01:46;7.60;99.90
22319;DHT22;11327;52.334;9.506;2022-10-20T01:05:08;7.60;99.90
22319;DHT22;11327;52.334;9.506;2022-10-20T01:08:29;7.60;99.90
22319;DHT22;11327;52.334;9.506;2022-10-20T01:15:31;7.60;99.90
22319;DHT22;11327;52.334;9.506;2022-10-20T01:30:32;7.50;99.90
22319;DHT22;11327;52.334;9.506;2022-10-20T01:37:47;7.30;99.90
22319;DHT22;11327;52.334;9.506;2022-10-20T01:41:18;7.40;99.90
22319;DHT22;11327;52.334;9.506;2022-10-20T01:44:40;7.40;99.90
22319;DHT22;11327;52.334;9.506;2022-10-20T01:48:04;7.40;99.90
22319;DHT22;11327;52.334;9.506;2022-10-20T01:51:25;7.40;99.90
22319;DHT22;11327;52.334;9.506;2022-10-20T01:54:46;7.40;99.90
22319;DHT22;11327;52.334;9.506;2022-10-20T01:58:24;7.40;99.90
22319;DHT22;11327;52.334;9.506;2022-10-20T02:05:54;7.30;99.90
22319;DHT22;11327;52.334;9.506;2022-10-20T02:09:14;7.30;99.90
22319;DHT22;11327;52.334;9.506;2022-10-20T02:12:38;7.20;99.90
22319;DHT22;11327;52.334;9.506;2022-10-20T02:16:00;7.20;99.90
22319;DHT22;11327;52.334;9.506;2022-10-20T02:19:25;7.10;99.90
22319;DHT22;11327;52.334;9.506;2022-10-20T02:22:48;7.20;99.90
22319;DHT22;11327;52.334;9.506;2022-10-20T02:26:16;7.10;99.90
22319;DHT22;11327;52.334;9.506;2022-10-20T02:29:37;7.10;99.90
22319;DHT22;11327;52.334;9.506;2022-10-20T02:32:58;7.10;99.90
22319;DHT22;11327;52.334;9.506;2022-10-20T02:36:20;7.10;99.90
22319;DHT22;11327;52.334;9.506;2022-10-20T02:39:43;7.10;99.90
22319;DHT22;11327;52.334;9.506;2022-10-20T02:43:04;7.00;99.90
22319;DHT22;11327;52.334;9.506;2022-10-20T02:46:26;6.90;99.90
22319;DHT22;11327;52.334;9.506;2022-10-20T02:49:47;6.90;99.90
22319;DHT22;11327;52.334;9.506;2022-10-20T02:53:08;6.90;99.90
22319;DHT22;11327;52.334;9.506;2022-10-20T02:56:29;6.90;99.90
22319;DHT22;11327;52.334;9.506;2022-10-20T02:59:50;6.90;99.90
22319;DHT22;11327;52.334;9.506;2022-10-20T03:03:11;6.90;99.90
22319;DHT22;11327;52.334;9.506;2022-10-20T03:06:32;6.90;99.90
22319;DHT22;11327;52.334;9.506;2022-10-20T03:09:53;6.90;99.90
22319;DHT22;11327;52.334;9.506;2022-10-20T03:13:14;6.90;99.90
22319;DHT22;11327;52.334;9.506;2022-10-20T03:16:35;7.00;99.90
22319;DHT22;11327;52.334;9.506;2022-10-20T03:19:56;6.90;99.90
22319;DHT22;11327;52.334;9.506;2022-10-20T03:23:17;6.90;99.90
22319;DHT22;11327;52.334;9.506;2022-10-20T03:26:38;6.90;99.90
22319;DHT22;11327;52.334;9.506;2022-10-20T03:29:59;6.90;99.90
22319;DHT22;11327;52.334;9.506;2022-10-20T03:33:20;6.90;99.90
22319;DHT22;11327;52.334;9.506;2022-10-20T03:36:41;6.90;99.90
22319;DHT22;11327;52.334;9.506;2022-10-20T03:40:03;6.90;99.90
22319;DHT22;11327;52.334;9.506;2022-10-20T03:43:24;6.90;99.90
22319;DHT22;11327;52.334;9.506;2022-10-20T03:46:45;6.80;99.90
22319;DHT22;11327;52.334;9.506;2022-10-20T03:50:06;6.80;99.90
22319;DHT22;11327;52.334;9.506;2022-10-20T03:53:28;6.90;99.90
22319;DHT22;11327;52.334;9.506;2022-10-20T03:56:49;6.80;99.90
22319;DHT22;11327;52.334;9.506;2022-10-20T04:00:11;6.80;99.90
22319;DHT22;11327;52.334;9.506;2022-10-20T04:03:32;6.70;99.90
22319;DHT22;11327;52.334;9.506;2022-10-20T04:06:53;6.70;99.90
22319;DHT22;11327;52.334;9.506;2022-10-20T04:10:15;6.70;99.90
22319;DHT22;11327;52.334;9.506;2022-10-20T04:13:36;6.70;99.90
22319;DHT22;11327;52.334;9.506;2022-10-20T04:16:57;6.60;99.90
22319;DHT22;11327;52.334;9.506;2022-10-20T04:20:18;6.70;99.90
22319;DHT22;11327;52.334;9.506;2022-10-20T04:23:39;6.60;99.90
22319;DHT22;11327;52.334;9.506;2022-10-20T04:27:00;6.60;99.90
22319;DHT22;11327;52.334;9.506;2022-10-20T04:30:21;6.60;99.90
22319;DHT22;11327;52.334;9.506;2022-10-20T04:33:42;6.70;99.90
22319;DHT22;11327;52.334;9.506;2022-10-20T04:37:03;6.60;99.90
22319;DHT22;11327;52.334;9.506;2022-10-20T04:40:24;6.60;99.90
22319;DHT22;11327;52.334;9.506;2022-10-20T04:43:50;6.50;99.90
22319;DHT22;11327;52.334;9.506;2022-10-20T04:47:11;6.50;99.90
22319;DHT22;11327;52.334;9.506;2022-10-20T04:50:32;6.50;99.90
22319;DHT22;11327;52.334;9.506;2022-10-20T04:53:53;6.50;99.90
22319;DHT22;11327;52.334;9.506;2022-10-20T04:57:14;6.40;99.90
22319;DHT22;11327;52.334;9.506;2022-10-20T05:00:37;6.50;99.90
22319;DHT22;11327;52.334;9.506;2022-10-20T05:03:58;6.40;99.90
22319;DHT22;11327;52.334;9.506;2022-10-20T05:07:19;6.40;99.90
22319;DHT22;11327;52.334;9.506;2022-10-20T05:10:40;6.40;99.90
22319;DHT22;11327;52.334;9.506;2022-10-20T05:14:01;6.30;99.90
22319;DHT22;11327;52.334;9.506;2022-10-20T05:17:22;6.30;99.90
22319;DHT22;11327;52.334;9.506;2022-10-20T05:20:43;6.30;99.90
22319;DHT22;11327;52.334;9.506;2022-10-20T05:24:04;6.20;99.90
22319;DHT22;11327;52.334;9.506;2022-10-20T05:27:25;6.30;99.90
22319;DHT22;11327;52.334;9.506;2022-10-20T05:30:48;6.30;99.90
22319;DHT22;11327;52.334;9.506;2022-10-20T05:34:10;6.20;99.90
22319;DHT22;11327;52.334;9.506;2022-10-20T05:37:31;6.30;99.90
22319;DHT22;11327;52.334;9.506;2022-10-20T05:40:52;6.30;99.90
22319;DHT22;11327;52.334;9.506;2022-10-20T05:44:13;6.30;99.90
22319;DHT22;11327;52.334;9.506;2022-10-20T05:47:34;6.40;99.90
22319;DHT22;11327;52.334;9.506;2022-10-20T05:50:55;6.40;99.90
22319;DHT22;11327;52.334;9.506;2022-10-20T05:54:16;6.30;99.90
22319;DHT22;11327;52.334;9.506;2022-10-20T05:57:37;6.30;99.90
22319;DHT22;11327;52.334;9.506;2022-10-20T06:01:06;6.40;99.90
22319;DHT22;11327;52.334;9.506;2022-10-20T06:04:27;6.30;99.90
22319;DHT22;11327;52.334;9.506;2022-10-20T06:07:48;6.30;99.90
22319;DHT22;11327;52.334;9.506;2022-10-20T06:11:11;6.30;99.90
22319;DHT22;11327;52.334;9.506;2022-10-20T06:14:32;6.40;99.90
22319;DHT22;11327;52.334;9.506;2022-10-20T06:17:53;6.50;99.90
22319;DHT22;11327;52.334;9.506;2022-10-20T06:21:17;6.50;99.90
22319;DHT22;11327;52.334;9.506;2022-10-20T06:24:38;6.50;99.90
22319;DHT22;11327;52.334;9.506;2022-10-20T06:27:59;6.60;99.90
22319;DHT22;11327;52.334;9.506;2022-10-20T06:31:22;6.60;99.90
22319;DHT22;11327;52.334;9.506;2022-10-20T06:34:43;6.60;99.90
22319;DHT22;11327;52.334;9.506;2022-10-20T06:38:04;6.50;99.90
22319;DHT22;11327;52.334;9.506;2022-10-20T06:41:25;6.40;99.90
22319;DHT22;11327;52.334;9.506;2022-10-20T06:44:47;6.40;99.90
22319;DHT22;11327;52.334;9.506;2022-10-20T06:48:07;6.40;99.90
22319;DHT22;11327;52.334;9.506;2022-10-20T06:51:29;6.50;99.90
22319;DHT22;11327;52.334;9.506;2022-10-20T06:54:50;6.50;99.90
22319;DHT22;11327;52.334;9.506;2022-10-20T06:58:11;6.50;99.90
22319;DHT22;11327;52.334;9.506;2022-10-20T07:01:34;6.50;99.90
22319;DHT22;11327;52.334;9.506;2022-10-20T07:04:55;6.60;99.90
22319;DHT22;11327;52.334;9.506;2022-10-20T07:08:16;6.60;99.90
22319;DHT22;11327;52.334;9.506;2022-10-20T07:11:37;6.70;99.90
22319;DHT22;11327;52.334;9.506;2022-10-20T07:14:58;6.70;99.90
22319;DHT22;11327;52.334;9.506;2022-10-20T07:18:20;6.70;99.90
22319;DHT22;11327;52.334;9.506;2022-10-20T07:21:41;6.80;99.90
22319;DHT22;11327;52.334;9.506;2022-10-20T07:25:02;6.80;99.90
22319;DHT22;11327;52.334;9.506;2022-10-20T07:28:25;6.80;99.90
22319;DHT22;11327;52.334;9.506;2022-10-20T07:31:46;6.90;99.90
22319;DHT22;11327;52.334;9.506;2022-10-20T07:35:08;6.90;99.90
22319;DHT22;11327;52.334;9.506;2022-10-20T07:38:29;7.00;99.90
22319;DHT22;11327;52.334;9.506;2022-10-20T07:41:50;7.00;99.90
22319;DHT22;11327;52.334;9.506;2022-10-20T07:45:11;7.10;99.90
22319;DHT22;11327;52.334;9.506;2022-10-20T07:48:32;7.20;99.90
22319;DHT22;11327;52.334;9.506;2022-10-20T07:51:53;7.30;99.90
22319;DHT22;11327;52.334;9.506;2022-10-20T07:55:14;7.40;99.90
22319;DHT22;11327;52.334;9.506;2022-10-20T07:58:35;7.50;99.90
22319;DHT22;11327;52.334;9.506;2022-10-20T08:01:57;7.60;99.90
22319;DHT22;11327;52.334;9.506;2022-10-20T08:05:18;7.60;99.90
22319;DHT22;11327;52.334;9.506;2022-10-20T08:08:38;7.80;99.90
22319;DHT22;11327;52.334;9.506;2022-10-20T08:11:59;7.90;99.90
22319;DHT22;11327;52.334;9.506;2022-10-20T08:15:20;8.00;99.90
22319;DHT22;11327;52.334;9.506;2022-10-20T08:18:41;8.00;99.90
22319;DHT22;11327;52.334;9.506;2022-10-20T08:22:02;8.10;99.90
22319;DHT22;11327;52.334;9.506;2022-10-20T08:25:23;8.10;99.90
22319;DHT22;11327;52.334;9.506;2022-10-20T08:28:45;8.20;99.90
22319;DHT22;11327;52.334;9.506;2022-10-20T08:32:06;8.20;99.90
22319;DHT22;11327;52.334;9.506;2022-10-20T08:35:27;8.20;99.90
22319;DHT22;11327;52.334;9.506;2022-10-20T08:38:48;8.20;99.90
22319;DHT22;11327;52.334;9.506;2022-10-20T08:42:09;8.30;99.90
22319;DHT22;11327;52.334;9.506;2022-10-20T08:45:30;8.30;99.90
22319;DHT22;11327;52.334;9.506;2022-10-20T08:48:51;8.40;99.90
22319;DHT22;11327;52.334;9.506;2022-10-20T08:52:13;8.40;99.90
22319;DHT22;11327;52.334;9.506;2022-10-20T08:55:35;8.60;99.90
22319;DHT22;11327;52.334;9.506;2022-10-20T08:58:56;8.60;99.90
22319;DHT22;11327;52.334;9.506;2022-10-20T09:02:17;8.60;99.90
22319;DHT22;11327;52.334;9.506;2022-10-20T09:05:40;8.70;99.90
22319;DHT22;11327;52.334;9.506;2022-10-20T09:09:02;8.80;99.90
22319;DHT22;11327;52.334;9.506;2022-10-20T09:12:23;8.90;99.90
22319;DHT22;11327;52.334;9.506;2022-10-20T09:15:44;9.00;99.90
22319;DHT22;11327;52.334;9.506;2022-10-20T09:19:11;9.10;99.90
22319;DHT22;11327;52.334;9.506;2022-10-20T09:22:29;9.10;99.90
22319;DHT22;11327;52.334;9.506;2022-10-20T09:25:51;9.20;99.90
22319;DHT22;11327;52.334;9.506;2022-10-20T09:29:21;9.40;99.90
22319;DHT22;11327;52.334;9.506;2022-10-20T09:32:42;9.50;99.90
22319;DHT22;11327;52.334;9.506;2022-10-20T09:36:11;9.60;99.90
22319;DHT22;11327;52.334;9.506;2022-10-20T09:39:53;9.70;99.90
22319;DHT22;11327;52.334;9.506;2022-10-20T09:43:15;9.80;99.90
22319;DHT22;11327;52.334;9.506;2022-10-20T09:46:43;10.00;99.90
22319;DHT22;11327;52.334;9.506;2022-10-20T09:50:12;10.10;99.90
22319;DHT22;11327;52.334;9.506;2022-10-20T09:53:32;10.30;99.90
22319;DHT22;11327;52.334;9.506;2022-10-20T09:57:02;10.50;99.90
22319;DHT22;11327;52.334;9.506;2022-10-20T10:00:36;10.50;99.90
22319;DHT22;11327;52.334;9.506;2022-10-20T10:03:55;10.50;99.90
22319;DHT22;11327;52.334;9.506;2022-10-20T10:11:04;10.70;99.90
22319;DHT22;11327;52.334;9.506;2022-10-20T10:14:27;10.80;99.90
22319;DHT22;11327;52.334;9.506;2022-10-20T10:17:49;11.00;99.90
22319;DHT22;11327;52.334;9.506;2022-10-20T10:21:13;11.10;99.90
22319;DHT22;11327;52.334;9.506;2022-10-20T10:24:43;11.40;99.90
22319;DHT22;11327;52.334;9.506;2022-10-20T10:28:21;11.50;99.90
22319;DHT22;11327;52.334;9.506;2022-10-20T10:31:57;11.50;99.90
22319;DHT22;11327;52.334;9.506;2022-10-20T10:38:57;11.50;99.90
22319;DHT22;11327;52.334;9.506;2022-10-20T10:46:10;11.60;99.90
22319;DHT22;11327;52.334;9.506;2022-10-20T10:56:53;11.80;99.90
22319;DHT22;11327;52.334;9.506;2022-10-20T11:07:42;12.20;99.90
22319;DHT22;11327;52.334;9.506;2022-10-20T11:14:53;12.50;99.90
22319;DHT22;11327;52.334;9.506;2022-10-20T11:28:56;12.90;99.90
22319;DHT22;11327;52.334;9.506;2022-10-20T11:32:24;13.00;99.90
22319;DHT22;11327;52.334;9.506;2022-10-20T11:35:56;13.10;99.90
